createdAt,value
2018-12-23T00:00:16.339Z,8.47
2018-12-23T00:02:51.573Z,8.83
2018-12-23T00:05:20.048Z,8.50
2018-12-23T00:07:48.510Z,7.90
2018-12-23T00:10:17.013Z,8.77
2018-12-23T00:12:45.513Z,9.63
2018-12-23T00:15:14.060Z,9.67
2018-12-23T00:17:42.535Z,8.70
2018-12-23T00:20:11.046Z,9.20
2018-12-23T00:22:39.540Z,8.03
2018-12-23T00:25:08.385Z,8.93
2018-12-23T00:27:36.847Z,8.43
2018-12-23T00:30:07.095Z,10.57
2018-12-23T00:32:35.619Z,8.80
2018-12-23T00:35:04.293Z,9.50
2018-12-23T00:37:32.786Z,8.23
2018-12-23T00:40:01.581Z,7.50
2018-12-23T00:42:30.067Z,7.53
2018-12-23T00:44:58.667Z,7.70
2018-12-23T00:47:27.173Z,8.87
2018-12-23T00:49:55.640Z,7.80
2018-12-23T00:52:24.189Z,7.57
2018-12-23T00:54:52.635Z,8.90
2018-12-23T00:57:21.214Z,7.97
2018-12-23T00:59:49.733Z,8.60
2018-12-23T01:02:18.240Z,6.70
2018-12-23T01:04:46.736Z,7.87
2018-12-23T01:07:16.183Z,7.20
2018-12-23T01:09:44.801Z,6.10
2018-12-23T01:12:13.309Z,7.12
2018-12-23T01:14:41.793Z,6.37
2018-12-23T01:17:10.365Z,7.83
2018-12-23T01:19:38.889Z,5.77
2018-12-23T01:22:07.401Z,6.60
2018-12-23T01:24:35.906Z,7.70
2018-12-23T01:27:04.389Z,6.90
2018-12-23T01:29:32.895Z,7.80
2018-12-23T01:32:01.360Z,7.93
2018-12-23T01:34:36.992Z,8.60
2018-12-23T01:37:00.372Z,7.30
2018-12-23T01:39:29.108Z,6.70
2018-12-23T01:41:58.467Z,6.20
2018-12-23T01:44:27.215Z,8.60
2018-12-23T01:46:55.737Z,6.37
2018-12-23T01:49:24.211Z,6.60
2018-12-23T01:51:52.730Z,6.60
2018-12-23T01:54:21.411Z,7.60
2018-12-23T01:56:49.861Z,9.83
2018-12-23T01:59:18.345Z,9.53
2018-12-23T02:01:46.818Z,6.50
2018-12-23T02:04:15.338Z,8.63
2018-12-23T02:06:43.848Z,7.03
2018-12-23T02:09:12.937Z,7.90
2018-12-23T02:11:41.480Z,7.90
2018-12-23T02:14:10.639Z,9.10
2018-12-23T02:16:39.159Z,7.03
2018-12-23T02:19:07.664Z,8.53
2018-12-23T02:21:36.149Z,8.20
2018-12-23T02:24:05.477Z,9.77
2018-12-23T02:26:33.947Z,7.60
2018-12-23T02:29:03.374Z,8.00
2018-12-23T02:31:31.860Z,7.67
2018-12-23T02:34:00.339Z,6.90
2018-12-23T02:36:28.965Z,6.93
2018-12-23T02:38:57.747Z,7.90
2018-12-23T02:41:31.576Z,7.47
2018-12-23T02:43:56.964Z,7.47
2018-12-23T02:46:25.440Z,7.23
2018-12-23T02:48:54.150Z,7.70
2018-12-23T02:51:22.789Z,7.87
2018-12-23T02:53:51.257Z,9.30
2018-12-23T02:56:19.784Z,7.70
2018-12-23T02:58:48.326Z,8.40
2018-12-23T03:01:16.895Z,8.63
2018-12-23T03:03:45.368Z,9.93
2018-12-23T03:06:13.987Z,7.63
2018-12-23T03:08:42.509Z,8.07
2018-12-23T03:11:11.025Z,11.17
2018-12-23T03:13:39.565Z,8.80
2018-12-23T03:16:08.028Z,7.57
2018-12-23T03:18:36.508Z,8.53
2018-12-23T03:21:05.081Z,7.80
2018-12-23T03:23:33.580Z,7.70
2018-12-23T03:26:02.143Z,9.60
2018-12-23T03:28:30.679Z,7.17
2018-12-23T03:30:59.266Z,7.30
2018-12-23T03:33:27.868Z,7.10
2018-12-23T03:35:56.336Z,7.80
2018-12-23T03:38:24.815Z,7.93
2018-12-23T03:40:53.311Z,6.80
2018-12-23T03:43:21.882Z,6.50
2018-12-23T03:45:50.522Z,6.87
2018-12-23T03:48:19.036Z,6.27
2018-12-23T03:50:47.654Z,6.47
2018-12-23T03:53:16.158Z,5.47
2018-12-23T03:55:44.772Z,7.97
2018-12-23T03:58:13.313Z,8.00
2018-12-23T04:00:41.775Z,5.73
2018-12-23T04:03:10.264Z,5.20
2018-12-23T04:05:38.871Z,6.20
2018-12-23T04:08:07.377Z,5.93
2018-12-23T04:10:35.884Z,5.27
2018-12-23T04:13:05.165Z,5.00
2018-12-23T04:15:34.395Z,6.57
2018-12-23T04:18:02.915Z,5.20
2018-12-23T04:20:31.911Z,5.43
2018-12-23T04:23:00.720Z,6.57
2018-12-23T04:25:29.176Z,5.87
2018-12-23T04:27:57.668Z,5.20
2018-12-23T04:30:26.873Z,5.50
2018-12-23T04:32:55.366Z,6.67
2018-12-23T04:35:24.084Z,5.90
2018-12-23T04:37:52.576Z,6.77
2018-12-23T04:40:21.044Z,6.90
2018-12-23T04:42:49.570Z,7.63
2018-12-23T04:45:18.116Z,5.90
2018-12-23T04:47:46.637Z,9.10
2018-12-23T04:50:15.089Z,8.20
2018-12-23T04:52:43.607Z,6.50
2018-12-23T04:55:12.161Z,7.47
2018-12-23T04:57:40.669Z,6.20
2018-12-23T05:00:09.366Z,7.57
2018-12-23T05:02:37.885Z,8.13
2018-12-23T05:05:06.374Z,6.17
2018-12-23T05:07:36.958Z,7.47
2018-12-23T05:10:05.666Z,7.70
2018-12-23T05:12:34.187Z,7.60
2018-12-23T05:15:02.742Z,7.90
2018-12-23T05:17:31.281Z,8.90
2018-12-23T05:19:59.796Z,8.37
2018-12-23T05:22:28.379Z,8.17
2018-12-23T05:24:56.990Z,9.73
2018-12-23T05:27:25.500Z,10.93
2018-12-23T05:29:53.947Z,8.33
2018-12-23T05:32:22.470Z,8.90
2018-12-23T05:34:50.964Z,8.93
2018-12-23T05:37:20.184Z,9.75
2018-12-23T05:39:48.672Z,10.57
2018-12-23T05:42:17.199Z,11.87
2018-12-23T05:44:45.787Z,11.90
2018-12-23T05:47:14.300Z,10.88
2018-12-23T05:49:42.768Z,10.80
2018-12-23T05:52:11.403Z,12.77
2018-12-23T05:54:40.040Z,13.03
2018-12-23T05:57:09.208Z,13.47
2018-12-23T05:59:37.779Z,11.73
2018-12-23T06:02:06.349Z,13.77
2018-12-23T06:04:35.003Z,15.00
2018-12-23T06:07:03.515Z,16.83
2018-12-23T06:09:32.136Z,16.47
2018-12-23T06:12:00.624Z,15.10
2018-12-23T06:14:29.097Z,16.60
2018-12-23T06:16:57.651Z,18.50
2018-12-23T06:19:26.650Z,19.80
2018-12-23T06:22:28.647Z,18.17
2018-12-23T06:24:58.270Z,20.17
2018-12-23T06:27:27.889Z,19.60
2018-12-23T06:29:57.855Z,20.60
2018-12-23T06:32:27.727Z,22.10
2018-12-23T06:34:57.313Z,20.67
2018-12-23T06:37:27.298Z,22.83
2018-12-23T06:39:57.329Z,21.87
2018-12-23T06:42:27.634Z,23.63
2018-12-23T06:44:57.311Z,21.07
2018-12-23T06:47:26.955Z,23.57
2018-12-23T06:49:56.879Z,23.60
2018-12-23T06:52:26.865Z,22.20
2018-12-23T06:54:56.485Z,25.53
2018-12-23T06:57:26.159Z,23.13
2018-12-23T06:59:55.808Z,23.77
2018-12-23T07:02:25.996Z,25.05
2018-12-23T07:04:55.955Z,22.20
2018-12-23T07:07:25.543Z,25.63
2018-12-23T07:09:55.171Z,24.50
2018-12-23T07:12:25.092Z,23.70
2018-12-23T07:14:54.772Z,23.00
2018-12-23T07:17:24.739Z,23.62
2018-12-23T07:19:54.832Z,25.37
2018-12-23T07:22:24.665Z,22.67
2018-12-23T07:24:54.263Z,23.63
2018-12-23T07:27:24.606Z,25.03
2018-12-23T07:29:54.599Z,24.33
2018-12-23T07:32:25.880Z,23.70
2018-12-23T07:34:55.750Z,26.00
2018-12-23T07:37:27.655Z,23.80
2018-12-23T07:39:56.725Z,24.90
2018-12-23T07:42:26.672Z,23.10
2018-12-23T07:44:56.303Z,23.73
2018-12-23T07:47:25.945Z,25.00
2018-12-23T07:49:55.579Z,24.33
2018-12-23T07:52:25.160Z,31.62
2018-12-23T07:54:55.097Z,22.87
2018-12-23T07:57:24.695Z,22.53
2018-12-23T07:59:54.332Z,26.50
2018-12-23T08:02:23.949Z,24.80
2018-12-23T08:04:53.558Z,23.87
2018-12-23T08:07:23.472Z,24.20
2018-12-23T08:09:53.461Z,27.00
2018-12-23T08:12:23.056Z,24.67
2018-12-23T08:14:53.294Z,24.13
2018-12-23T08:17:23.267Z,27.80
2018-12-23T08:19:53.172Z,25.40
2018-12-23T08:22:23.211Z,25.10
2018-12-23T08:24:53.202Z,26.67
2018-12-23T08:27:23.308Z,24.23
2018-12-23T08:29:52.902Z,28.53
2018-12-23T08:32:22.554Z,28.80
2018-12-23T08:34:52.126Z,26.40
2018-12-23T08:37:22.123Z,27.83
2018-12-23T08:39:51.764Z,28.23
2018-12-23T08:42:21.759Z,24.63
2018-12-23T08:44:51.330Z,25.63
2018-12-23T08:47:20.987Z,26.53
2018-12-23T08:49:50.581Z,25.10
2018-12-23T08:52:20.608Z,27.32
2018-12-23T08:54:50.202Z,27.80
2018-12-23T08:57:19.957Z,27.80
2018-12-23T08:59:49.576Z,25.50
2018-12-23T09:02:19.544Z,26.10
2018-12-23T09:04:49.584Z,28.43
2018-12-23T09:07:19.592Z,27.97
2018-12-23T09:09:50.567Z,27.37
2018-12-23T09:12:20.545Z,27.60
2018-12-23T09:14:51.853Z,27.93
2018-12-23T09:17:21.820Z,27.43
2018-12-23T09:19:54.717Z,27.77
2018-12-23T09:22:24.384Z,27.70
2018-12-23T09:24:54.719Z,28.20
2018-12-23T09:27:24.707Z,28.57
2018-12-23T09:29:54.625Z,27.00
2018-12-23T09:32:24.265Z,28.25
2018-12-23T09:34:54.175Z,28.43
2018-12-23T09:37:24.124Z,28.30
2018-12-23T09:39:54.504Z,27.93
2018-12-23T09:42:24.406Z,27.77
2018-12-23T09:44:54.439Z,24.70
2018-12-23T09:47:24.167Z,29.20
2018-12-23T09:49:54.084Z,31.03
2018-12-23T09:52:23.682Z,26.13
2018-12-23T09:54:53.397Z,28.03
2018-12-23T09:57:23.935Z,26.73
2018-12-23T09:59:54.368Z,26.87
2018-12-23T10:02:24.821Z,27.27
2018-12-23T10:04:54.718Z,26.40
2018-12-23T10:07:24.438Z,26.83
2018-12-23T10:09:54.057Z,33.93
2018-12-23T10:12:24.029Z,31.37
2018-12-23T10:14:53.954Z,30.80
2018-12-23T10:17:24.213Z,31.17
2018-12-23T10:19:54.145Z,27.00
2018-12-23T10:22:23.811Z,28.00
2018-12-23T10:24:53.942Z,28.00
2018-12-23T10:27:23.826Z,26.83
2018-12-23T10:29:54.146Z,24.97
2018-12-23T10:32:23.968Z,33.10
2018-12-23T10:34:54.286Z,25.10
2018-12-23T10:37:24.257Z,24.67
2018-12-23T10:39:54.796Z,26.33
2018-12-23T10:42:24.409Z,23.97
2018-12-23T10:44:54.447Z,26.37
2018-12-23T10:47:25.498Z,25.77
2018-12-23T10:49:55.260Z,23.80
2018-12-23T10:52:25.000Z,24.97
2018-12-23T10:54:55.805Z,27.37
2018-12-23T10:57:25.429Z,25.67
2018-12-23T10:59:55.094Z,27.20
2018-12-23T11:02:25.615Z,25.83
2018-12-23T11:04:55.308Z,24.77
2018-12-23T11:07:24.969Z,27.67
2018-12-23T11:10:01.928Z,27.20
2018-12-23T11:12:26.584Z,26.67
2018-12-23T11:14:56.218Z,28.80
2018-12-23T11:17:27.363Z,27.87
2018-12-23T11:19:57.524Z,41.47
2018-12-23T11:22:27.244Z,25.80
2018-12-23T11:24:56.985Z,29.13
2018-12-23T11:27:27.057Z,26.47
2018-12-23T11:29:57.108Z,27.10
2018-12-23T11:32:27.191Z,23.60
2018-12-23T11:34:56.761Z,23.30
2018-12-23T11:37:26.984Z,23.23
2018-12-23T11:39:56.667Z,24.57
2018-12-23T11:42:26.553Z,24.33
2018-12-23T11:44:56.510Z,26.10
2018-12-23T11:47:26.564Z,24.23
2018-12-23T11:49:56.177Z,24.40
2018-12-23T11:52:25.747Z,26.77
2018-12-23T11:54:55.663Z,24.90
2018-12-23T11:57:25.567Z,24.30
2018-12-23T11:59:55.611Z,29.33
2018-12-23T12:02:25.221Z,23.33
2018-12-23T12:04:55.183Z,24.77
2018-12-23T12:07:25.110Z,23.00
2018-12-23T12:09:54.811Z,24.30
2018-12-23T12:12:24.850Z,24.60
2018-12-23T12:14:55.163Z,23.47
2018-12-23T12:17:25.351Z,22.80
2018-12-23T12:19:55.034Z,25.43
2018-12-23T12:22:25.007Z,24.97
2018-12-23T12:24:54.914Z,24.40
2018-12-23T12:27:24.619Z,26.93
2018-12-23T12:29:54.624Z,24.40
2018-12-23T12:32:24.635Z,25.70
2018-12-23T12:34:54.259Z,23.07
2018-12-23T12:37:23.879Z,22.80
2018-12-23T12:39:53.654Z,24.37
2018-12-23T12:42:24.226Z,21.73
2018-12-23T12:44:54.256Z,24.43
2018-12-23T12:47:24.004Z,24.37
2018-12-23T12:49:53.750Z,22.90
2018-12-23T12:52:23.521Z,23.70
2018-12-23T12:54:53.619Z,23.40
2018-12-23T12:57:24.347Z,23.97
2018-12-23T12:59:54.880Z,22.20
2018-12-23T13:02:24.569Z,25.10
2018-12-23T13:04:54.663Z,23.57
2018-12-23T13:07:24.620Z,38.17
2018-12-23T13:09:54.231Z,28.03
2018-12-23T13:12:24.325Z,27.03
2018-12-23T13:14:54.363Z,25.77
2018-12-23T13:17:24.411Z,25.70
2018-12-23T13:19:54.024Z,26.63
2018-12-23T13:22:25.651Z,25.43
2018-12-23T13:24:56.815Z,23.80
2018-12-23T13:27:26.407Z,24.77
2018-12-23T13:29:56.040Z,23.83
2018-12-23T13:32:25.713Z,24.63
2018-12-23T13:34:55.324Z,24.83
2018-12-23T13:37:24.992Z,32.67
2018-12-23T13:39:56.651Z,29.00
2018-12-23T13:42:52.166Z,28.60
2018-12-23T13:46:01.068Z,34.83
2018-12-23T13:49:01.129Z,24.30
2018-12-23T13:51:58.729Z,26.27
2018-12-23T13:55:36.701Z,33.80
2018-12-23T13:58:47.441Z,28.40
2018-12-23T14:02:09.693Z,32.80
2018-12-23T14:05:04.139Z,35.93
2018-12-23T14:08:16.545Z,72.57
2018-12-23T14:11:24.160Z,55.20
2018-12-23T14:13:53.780Z,37.63
2018-12-23T14:16:24.716Z,50.03
2018-12-23T14:18:54.631Z,42.37
2018-12-23T14:21:24.260Z,27.70
2018-12-23T14:23:54.139Z,25.03
2018-12-23T14:26:24.330Z,25.63
2018-12-23T14:28:54.044Z,26.73
2018-12-23T14:31:24.683Z,26.90
2018-12-23T14:33:54.277Z,27.27
2018-12-23T14:36:23.930Z,27.90
2018-12-23T14:38:55.611Z,25.77
2018-12-23T14:41:25.403Z,26.00
2018-12-23T14:43:55.027Z,26.07
2018-12-23T14:46:25.952Z,27.80
2018-12-23T14:48:55.930Z,26.90
2018-12-23T14:51:25.553Z,27.73
2018-12-23T14:53:55.677Z,25.50
2018-12-23T14:56:25.297Z,27.22
2018-12-23T14:58:56.317Z,25.87
2018-12-23T15:01:25.914Z,27.00
2018-12-23T15:03:56.201Z,24.80
2018-12-23T15:06:26.523Z,25.57
2018-12-23T15:08:56.374Z,23.83
2018-12-23T15:11:26.199Z,25.93
2018-12-23T15:13:55.816Z,25.93
2018-12-23T15:16:25.558Z,23.23
2018-12-23T15:18:55.886Z,29.60
2018-12-23T15:21:25.461Z,33.70
2018-12-23T15:23:55.038Z,28.73
2018-12-23T15:26:24.636Z,31.90
2018-12-23T15:28:54.585Z,27.77
2018-12-23T15:31:24.272Z,27.27
2018-12-23T15:33:53.891Z,24.47
2018-12-23T15:36:24.332Z,24.33
2018-12-23T15:38:54.294Z,22.47
2018-12-23T15:41:24.248Z,23.90
2018-12-23T15:43:54.421Z,23.50
2018-12-23T15:46:24.041Z,21.17
2018-12-23T15:48:53.641Z,23.23
2018-12-23T15:51:23.231Z,20.27
2018-12-23T15:53:53.091Z,22.20
2018-12-23T15:56:22.724Z,20.90
2018-12-23T15:58:52.320Z,22.60
2018-12-23T16:01:23.792Z,23.80
2018-12-23T16:03:53.372Z,25.60
2018-12-23T16:06:23.681Z,25.37
2018-12-23T16:08:53.731Z,26.20
2018-12-23T16:11:23.614Z,26.10
2018-12-23T16:13:54.861Z,25.40
2018-12-23T16:16:24.436Z,24.20
2018-12-23T16:18:55.541Z,22.57
2018-12-23T16:21:26.445Z,24.60
2018-12-23T16:23:56.043Z,24.40
2018-12-23T16:26:25.677Z,24.80
2018-12-23T16:28:55.848Z,25.50
2018-12-23T16:31:25.910Z,25.10
2018-12-23T16:33:56.338Z,25.23
2018-12-23T16:36:26.242Z,27.20
2018-12-23T16:38:56.126Z,25.30
2018-12-23T16:41:27.145Z,24.20
2018-12-23T16:43:56.777Z,22.87
2018-12-23T16:46:26.927Z,25.17
2018-12-23T16:48:57.326Z,24.80
2018-12-23T16:51:27.310Z,24.10
2018-12-23T16:53:56.902Z,24.30
2018-12-23T16:56:26.515Z,24.20
2018-12-23T16:58:56.135Z,23.00
2018-12-23T17:01:25.844Z,22.23
2018-12-23T17:03:55.469Z,21.97
2018-12-23T17:06:25.871Z,21.40
2018-12-23T17:08:55.598Z,20.90
2018-12-23T17:11:25.218Z,22.77
2018-12-23T17:13:55.004Z,20.60
2018-12-23T17:16:24.915Z,23.57
2018-12-23T17:18:54.558Z,24.03
2018-12-23T17:21:24.521Z,21.57
2018-12-23T17:23:54.869Z,17.30
2018-12-23T17:26:24.783Z,17.57
2018-12-23T17:28:54.800Z,17.63
2018-12-23T17:31:24.435Z,17.47
2018-12-23T17:33:54.049Z,19.83
2018-12-23T17:36:24.037Z,16.20
2018-12-23T17:38:53.971Z,16.30
2018-12-23T17:41:23.775Z,18.57
2018-12-23T17:43:54.120Z,18.83
2018-12-23T17:46:23.730Z,14.03
2018-12-23T17:48:53.651Z,20.23
2018-12-23T17:51:23.440Z,19.53
2018-12-23T17:53:53.577Z,16.13
2018-12-23T17:56:23.644Z,15.50
2018-12-23T17:58:53.616Z,12.80
2018-12-23T18:01:23.478Z,13.23
2018-12-23T18:03:53.478Z,11.27
2018-12-23T18:06:25.105Z,13.87
2018-12-23T18:08:54.510Z,13.70
2018-12-23T18:11:24.487Z,13.03
2018-12-23T18:13:54.336Z,14.93
2018-12-23T18:16:23.977Z,14.10
2018-12-23T18:18:54.468Z,13.47
2018-12-23T18:21:24.649Z,14.90
2018-12-23T18:23:54.685Z,18.63
2018-12-23T18:26:24.833Z,17.10
2018-12-23T18:28:55.105Z,15.73
2018-12-23T18:31:25.086Z,13.10
2018-12-23T18:33:54.825Z,14.90
2018-12-23T18:36:25.452Z,15.10
2018-12-23T18:38:56.583Z,13.00
2018-12-23T18:41:26.373Z,10.70
2018-12-23T18:43:56.372Z,11.47
2018-12-23T18:46:25.996Z,11.10
2018-12-23T18:48:55.902Z,10.60
2018-12-23T18:51:25.843Z,12.40
2018-12-23T18:53:56.117Z,14.63
2018-12-23T18:56:41.497Z,11.70
2018-12-23T18:59:11.977Z,10.33
2018-12-23T19:01:45.522Z,12.93
2018-12-23T19:04:15.610Z,13.00
2018-12-23T19:06:45.871Z,9.80
2018-12-23T19:09:47.549Z,12.97
2018-12-23T19:13:00.599Z,10.63
2018-12-23T19:15:58.890Z,11.80
2018-12-23T19:19:04.963Z,12.50
2018-12-23T19:22:15.560Z,10.50
2018-12-23T19:25:05.998Z,10.10
2018-12-23T19:28:13.629Z,11.40
2018-12-23T19:31:28.573Z,8.03
2018-12-23T19:34:34.497Z,9.07
2018-12-23T19:37:41.129Z,7.77
2018-12-23T19:40:56.919Z,7.83
2018-12-23T19:44:25.836Z,3.70
2018-12-23T19:47:25.514Z,4.30
2018-12-23T19:50:14.643Z,5.63
2018-12-23T19:53:33.318Z,4.90
2018-12-23T19:56:40.999Z,5.00
2018-12-23T20:00:02.754Z,4.70
2018-12-23T20:03:11.166Z,5.30
2018-12-23T20:06:46.115Z,4.80
2018-12-23T20:09:39.402Z,4.60
2018-12-23T20:12:45.261Z,3.80
2018-12-23T20:16:06.016Z,4.37
2018-12-23T20:19:12.060Z,4.90
2018-12-23T20:22:25.276Z,4.90
2018-12-23T20:25:43.859Z,4.83
2018-12-23T20:28:52.185Z,4.90
2018-12-23T20:31:47.024Z,5.93
2018-12-23T20:34:57.474Z,5.90
2018-12-23T20:38:07.925Z,4.77
2018-12-23T20:41:14.090Z,4.73
2018-12-23T20:44:26.874Z,5.30
2018-12-23T20:47:25.267Z,6.40
2018-12-23T20:50:29.023Z,5.00
2018-12-23T20:53:45.444Z,5.70
2018-12-23T20:57:06.476Z,5.80
2018-12-23T21:00:22.353Z,5.70
2018-12-23T21:03:32.117Z,5.57
2018-12-23T21:06:41.518Z,6.00
2018-12-23T21:09:47.113Z,7.03
2018-12-23T21:12:56.677Z,6.80
2018-12-23T21:16:09.085Z,7.57
2018-12-23T21:19:18.565Z,7.50
2018-12-23T21:22:29.287Z,8.00
2018-12-23T21:25:27.450Z,8.77
2018-12-23T21:28:14.147Z,8.10
2018-12-23T21:31:20.760Z,8.00
2018-12-23T21:34:43.435Z,7.33
2018-12-23T21:37:36.798Z,6.80
2018-12-23T21:41:01.371Z,5.90
2018-12-23T21:43:58.899Z,6.00
2018-12-23T21:47:07.797Z,6.23
2018-12-23T21:50:45.920Z,4.20
2018-12-23T21:54:02.703Z,5.57
2018-12-23T21:57:24.145Z,5.60
2018-12-23T22:00:36.290Z,4.97
2018-12-23T22:03:50.720Z,5.20
2018-12-23T22:07:02.494Z,6.07
2018-12-23T22:10:04.752Z,6.40
2018-12-23T22:13:24.334Z,7.23
2018-12-23T22:15:55.116Z,6.40
2018-12-23T22:18:25.699Z,6.17
2018-12-23T22:20:55.889Z,5.03
2018-12-23T22:23:26.689Z,6.90
2018-12-23T22:25:57.799Z,6.90
2018-12-23T22:28:29.163Z,6.73
2018-12-23T22:30:59.078Z,7.47
2018-12-23T22:33:28.756Z,6.90
2018-12-23T22:35:58.395Z,5.97
2018-12-23T22:38:28.405Z,6.60
2018-12-23T22:41:12.944Z,6.77
2018-12-23T22:43:42.760Z,7.03
2018-12-23T22:46:12.390Z,7.47
2018-12-23T22:48:42.615Z,6.10
2018-12-23T22:51:12.224Z,6.93
2018-12-23T22:53:41.834Z,7.90
2018-12-23T22:56:11.871Z,6.40
2018-12-23T22:58:41.491Z,7.00
2018-12-23T23:01:11.242Z,6.07
2018-12-23T23:03:41.030Z,6.57
2018-12-23T23:06:10.702Z,7.90
2018-12-23T23:08:40.713Z,7.10
2018-12-23T23:11:10.355Z,8.07
2018-12-23T23:13:39.998Z,8.47
2018-12-23T23:16:09.969Z,8.27
2018-12-23T23:18:39.670Z,9.90
2018-12-23T23:21:09.676Z,9.30
2018-12-23T23:23:39.240Z,8.93
2018-12-23T23:26:09.197Z,11.67
2018-12-23T23:28:39.934Z,10.43
2018-12-23T23:31:10.718Z,9.20
2018-12-23T23:33:40.719Z,10.67
2018-12-23T23:36:10.751Z,8.77
2018-12-23T23:38:40.885Z,7.67
2018-12-23T23:41:11.147Z,10.00
2018-12-23T23:43:41.171Z,12.60
2018-12-23T23:46:11.391Z,10.60
2018-12-23T23:48:41.021Z,11.20
2018-12-23T23:51:10.643Z,10.20
2018-12-23T23:53:40.622Z,11.10
2018-12-23T23:56:10.583Z,13.43
2018-12-23T23:58:40.627Z,10.50
